Latest Weather Observations for Derby

IDW60801

Issued at 8:33 am WST Monday 26 August 2019 (issued every 10 minutes, with the page automatically refreshed every 10 minutes)

About weather observations | Map of weather stations | Latest weather observations for WA | Other Formats
Station Details ID: 003032 Name: DERBY AERO Lat: -17.37 Lon: 123.66 Height: 6.2 m
Data from the previous 72 hours. | See also: Recent months at Derby
Date/Time
WST
Temp
°C
App
Temp
°C
Dew
Point
°C
Rel
Hum
%
Delta-T
°C
Wind Press
QNH
hPa
Press
MSL
hPa
Rain since
9am
mm
Dir  Spd
km/h
Gust
km/h
Spd
kts
Gust
kts
26/08:30am 25.1 23.0 12.3 45 7.3 N 15 19 8 10 1014.5 1014.5 0.0
26/08:00am 23.6 23.0 15.6 61 4.8 N 13 17 7 9 1014.3 1014.3 0.0
26/07:30am 21.0 20.9 17.0 78 2.4 N 13 17 7 9 1014.1 1014.1 0.0
26/07:00am 18.2 18.9 17.0 93 0.7 NNE 9 11 5 6 1014.1 1014.1 0.0
26/06:30am 17.0 17.1 16.4 96 0.4 NE 11 13 6 7 1013.7 1013.7 0.0
26/06:00am 16.1 15.0 14.3 89 1.0 NE 13 15 7 8 1013.4 1013.4 0.0
26/05:30am 16.3 15.3 13.4 83 1.6 NE 11 15 6 8 1013.2 1013.2 0.0
26/05:00am 16.8 16.1 13.1 79 2.1 NNE 9 11 5 6 1013.1 1013.1 0.0
26/04:30am 16.4 15.4 12.2 76 2.3 N 9 11 5 6 1012.8 1012.8 0.0
26/04:00am 16.3 15.1 12.7 79 2.0 NNE 11 13 6 7 1012.4 1012.4 0.0
26/03:30am 16.5 15.8 13.2 81 1.8 NNE 9 11 5 6 1012.5 1012.5 0.0
26/03:00am 15.8 15.1 13.3 85 1.4 NE 9 11 5 6 1012.3 1012.3 0.0
26/02:30am 16.0 15.6 13.1 83 1.6 NE 7 11 4 6 1012.4 1012.4 0.0
26/02:00am 16.1 15.8 11.3 73 2.6 ENE 4 9 2 5 1012.2 1012.2 0.0
26/01:30am 15.7 16.2 11.5 76 2.3 CALM 0 0 0 0 1012.2 1012.2 0.0
26/01:00am 16.1 16.8 12.3 78 2.1 CALM 0 0 0 0 1012.5 1012.5 0.0
26/12:30am 16.4 17.3 12.8 79 2.0 CALM 0 0 0 0 1012.7 1012.7 0.0
26/12:00am 16.9 17.1 12.0 73 2.7 SSE 2 7 1 4 1013.0 1013.0 0.0
 
Date/Time
WST
Temp
°C
App
Temp
°C
Dew
Point
°C
Rel
Hum
%
Delta-T
°C
Wind Press
QNH
hPa
Press
MSL
hPa
Rain since
9am
mm
Dir  Spd
km/h
Gust
km/h
Spd
kts
Gust
kts
25/11:30pm 17.8 17.8 13.5 76 2.4 SE 6 7 3 4 1013.3 1013.3 0.0
25/11:00pm 17.4 18.8 14.3 82 1.8 CALM 0 0 0 0 1013.2 1013.2 0.0
25/10:30pm 19.2 19.8 15.9 81 2.0 NW 7 7 4 4 1013.2 1013.2 0.0
25/10:00pm 19.5 20.2 16.0 80 2.1 WNW 7 9 4 5 1013.5 1013.5 0.0
25/09:30pm 20.4 21.4 16.4 78 2.4 NNW 6 7 3 4 1013.4 1013.4 0.0
25/09:00pm 21.7 22.8 17.1 75 2.8 NNW 7 9 4 5 1013.2 1013.2 0.0
25/08:30pm 22.2 22.8 16.7 71 3.4 NNW 9 13 5 7 1013.0 1013.0 0.0
25/08:00pm 22.8 22.6 17.7 73 3.2 NNW 15 17 8 9 1012.8 1012.8 0.0
25/07:30pm 23.0 22.5 17.0 69 3.7 NNW 15 19 8 10 1012.5 1012.5 0.0
25/07:00pm 23.2 22.8 17.2 69 3.7 NNW 15 17 8 9 1012.4 1012.4 0.0
25/06:30pm 23.7 22.9 17.0 66 4.1 NNW 17 20 9 11 1012.1 1012.1 0.0
25/06:00pm 24.3 22.2 16.3 61 4.9 NNW 22 28 12 15 1011.7 1011.7 0.0
25/05:30pm 24.9 21.7 16.3 59 5.3 NW 28 33 15 18 1011.4 1011.4 0.0
25/05:00pm 26.7 22.2 13.8 45 7.6 NW 30 37 16 20 1011.2 1011.2 0.0
25/04:30pm 27.7 22.6 14.7 45 7.8 NW 35 41 19 22 1010.9 1010.9 0.0
25/04:00pm 29.5 23.3 10.1 30 11.0 NW 33 39 18 21 1010.6 1010.6 0.0
25/03:30pm 30.8 25.6 10.2 28 11.7 NW 28 33 15 18 1010.6 1010.6 0.0
25/03:00pm 30.7 25.3 9.6 27 11.9 NW 28 33 15 18 1010.5 1010.5 0.0
25/02:30pm 33.0 28.6 10.4 25 13.0 NW 24 30 13 16 1010.6 1010.6 0.0
25/02:00pm 33.1 28.1 7.9 21 14.0 NW 24 32 13 17 1010.8 1010.8 0.0
25/01:30pm 34.6 29.1 7.6 19 15.0 NNW 26 35 14 19 1011.1 1011.1 0.0
25/01:00pm 33.6 27.7 7.6 20 14.4 NW 28 35 15 19 1011.5 1011.5 0.0
25/12:30pm 33.7 29.3 7.6 20 14.5 NW 20 35 11 19 1012.1 1012.1 0.0
25/12:00pm 34.2 29.5 -1.7 10 17.2 NNE 13 22 7 12 1012.5 1012.5 0.0
25/11:30am 34.4 29.5 -0.3 11 17.0 NNE 15 24 8 13 1013.0 1013.0 0.0
25/11:00am 33.7 28.2 -2.1 10 16.9 NNE 17 26 9 14 1013.5 1013.5 0.0
25/10:30am 33.1 27.4 -4.0 9 16.9 NE 17 26 9 14 1014.0 1014.0 0.0
25/10:00am 31.8 25.6 -4.9 9 16.3 ENE 19 28 10 15 1014.5 1014.5 0.0
25/09:30am 31.0 25.3 -4.1 10 15.7 E 17 24 9 13 1014.7 1014.7 0.0
25/09:00am 27.5 24.1 -0.5 16 13.0 SSW 7 11 4 6 1014.8 1014.8 0.0
25/08:30am 25.2 21.5 0.0 19 11.6 ESE 9 15 5 8 1014.7 1014.7 0.0
25/08:00am 21.6 19.4 0.8 25 9.4 NNE 2 6 1 3 1014.6 1014.6 0.0
25/07:30am 18.1 15.0 0.3 30 7.8 SSE 6 6 3 3 1014.4 1014.4 0.0
25/07:00am 15.7 12.6 1.1 37 6.3 SSE 7 9 4 5 1014.3 1014.3 0.0
25/06:30am 13.5 10.8 2.7 48 4.8 SSE 6 6 3 3 1014.0 1014.0 0.0
25/06:00am 12.8 10.1 2.6 50 4.5 SE 6 7 3 4 1013.6 1013.6 0.0
25/05:30am 13.5 10.3 3.0 49 4.7 SSE 9 11 5 6 1013.6 1013.6 0.0
25/05:00am 13.7 10.1 2.9 48 4.8 SSE 11 13 6 7 1013.3 1013.3 0.0
25/04:30am 14.4 11.3 3.8 49 4.8 SSE 9 11 5 6 1013.0 1013.0 0.0
25/04:00am 15.0 11.9 3.5 46 5.2 SSE 9 11 5 6 1013.0 1013.0 0.0
25/03:30am 16.3 13.4 4.7 46 5.5 SSE 9 11 5 6 1013.0 1013.0 0.0
25/03:00am 17.4 14.6 5.0 44 5.9 SSE 9 13 5 7 1013.0 1013.0 0.0
25/02:30am 17.3 13.3 4.9 44 5.9 SE 15 20 8 11 1013.1 1013.1 0.0
25/02:00am 15.2 12.7 4.6 49 4.9 SSE 7 9 4 5 1013.0 1013.0 0.0
25/01:30am 17.5 14.7 5.1 44 5.9 SSE 9 9 5 5 1013.3 1013.3 0.0
25/01:00am 17.8 15.2 6.0 46 5.8 SE 9 13 5 7 1013.5 1013.5 0.0
25/12:30am 16.5 13.8 7.4 55 4.5 SE 11 13 6 7 1013.6 1013.6 0.0
25/12:00am 16.6 15.1 8.3 58 4.2 SSE 6 7 3 4 1013.8 1013.8 0.0
 
Date/Time
WST
Temp
°C
App
Temp
°C
Dew
Point
°C
Rel
Hum
%
Delta-T
°C
Wind Press
QNH
hPa
Press
MSL
hPa
Rain since
9am
mm
Dir  Spd
km/h
Gust
km/h
Spd
kts
Gust
kts
24/11:30pm 17.2 16.5 7.0 51 5.1 CALM 0 0 0 0 1014.1 1014.1 0.0
24/11:00pm 16.8 15.9 6.0 49 5.2 CALM 0 0 0 0 1014.3 1014.3 0.0
24/10:30pm 18.4 18.2 8.9 54 4.9 CALM 0 0 0 0 1014.4 1014.4 0.0
24/10:00pm 18.6 17.8 6.4 45 6.1 CALM 0 0 0 0 1014.4 1014.4 0.0
24/09:30pm 19.8 17.9 6.9 43 6.5 NW 6 7 3 4 1014.4 1014.4 0.0
24/09:00pm 21.0 19.5 9.3 47 6.2 NNW 7 7 4 4 1014.3 1014.3 0.0
24/08:30pm 20.2 18.8 7.2 43 6.6 WNW 4 7 2 4 1014.3 1014.3 0.0
24/08:00pm 22.0 21.6 8.2 41 7.2 CALM 0 0 0 0 1014.0 1014.0 0.0
24/07:30pm 23.0 21.4 7.9 38 7.9 NW 6 7 3 4 1013.6 1013.6 0.0
24/07:00pm 24.0 22.2 8.0 36 8.5 NW 7 9 4 5 1013.2 1013.2 0.0
24/06:30pm 25.0 22.9 6.7 31 9.5 NW 7 9 4 5 1013.0 1013.0 0.0
24/06:00pm 25.1 21.8 4.8 27 10.2 NW 11 13 6 7 1012.7 1012.7 0.0
24/05:30pm 27.6 24.2 4.0 22 11.9 NW 11 15 6 8 1012.4 1012.4 0.0
24/05:00pm 30.4 24.8 0.9 15 14.3 NNW 20 24 11 13 1012.0 1012.0 0.0
24/04:30pm 31.6 26.0 0.9 14 15.0 NW 20 24 11 13 1011.9 1011.9 0.0
24/04:00pm 32.4 26.5 1.5 14 15.4 NW 22 26 12 14 1011.7 1011.7 0.0
24/03:30pm 33.3 27.6 -1.1 11 16.5 NW 19 22 10 12 1011.5 1011.5 0.0
24/03:00pm 33.4 28.0 2.3 14 15.8 NW 20 24 11 13 1011.6 1011.6 0.0
24/02:30pm 34.0 28.3 -0.6 11 16.8 WNW 19 22 10 12 1011.7 1011.7 0.0
24/02:00pm 33.4 27.8 3.3 15 15.5 WNW 22 28 12 15 1012.3 1012.3 0.0
24/01:30pm 33.5 28.4 4.2 16 15.3 NW 20 24 11 13 1012.7 1012.7 0.0
24/01:00pm 33.0 28.8 5.5 18 14.7 WNW 17 22 9 12 1013.3 1013.3 0.0
24/12:30pm 31.9 27.3 5.4 19 14.0 WNW 19 24 10 13 1013.7 1013.7 0.0
24/12:00pm 33.0 29.6 2.0 14 15.6 W 9 24 5 13 1014.1 1014.1 0.0
24/11:30am 32.7 28.2 -2.9 10 16.5 E 11 20 6 11 1014.6 1014.6 0.0
24/11:00am 31.6 27.4 -1.2 12 15.5 NE 11 20 6 11 1015.1 1015.1 0.0
24/10:30am 31.1 27.3 -0.5 13 15.1 NE 9 17 5 9 1015.7 1015.7 0.0
24/10:00am 29.2 25.8 1.7 17 13.4 ENE 9 15 5 8 1016.3 1016.3 0.0
24/09:30am 27.0 23.3 2.1 20 12.1 ENE 11 13 6 7 1016.6 1016.6 0.0
24/09:00am 25.3 22.3 3.9 25 10.6 NE 9 13 5 7 1016.9 1016.9 0.0
24/08:30am 21.2 19.0 7.8 42 6.9 ESE 9 11 5 6 1017.0 1017.0 0.0
24/08:00am 18.7 16.1 9.2 54 5.0 SSE 13 17 7 9 1017.2 1017.2 0.0
24/07:30am 17.2 15.1 11.0 67 3.3 SSE 13 17 7 9 1017.0 1017.0 0.0
24/07:00am 16.1 14.1 11.5 74 2.5 SSE 13 19 7 10 1016.7 1016.7 0.0
24/06:30am 15.1 13.2 10.5 74 2.4 SE 11 13 6 7 1016.4 1016.4 0.0
24/06:00am 14.8 13.0 10.8 77 2.1 SE 11 13 6 7 1016.1 1016.1 0.0
24/05:30am 15.0 13.0 11.6 80 1.8 SE 13 15 7 8 1015.9 1015.9 0.0
24/05:00am 15.0 12.4 10.6 75 2.3 SE 15 17 8 9 1015.7 1015.7 0.0
24/04:30am 15.0 12.4 9.4 69 2.9 SE 13 17 7 9 1015.4 1015.4 0.0
24/04:00am 15.4 13.0 10.2 71 2.7 S 13 15 7 8 1015.2 1015.2 0.0
24/03:30am 15.6 12.9 9.1 65 3.3 SSE 13 15 7 8 1015.1 1015.1 0.0
24/03:00am 15.6 12.0 6.9 56 4.3 SSE 15 17 8 9 1015.3 1015.3 0.0
24/02:30am 13.8 11.8 8.8 72 2.5 SE 9 9 5 5 1015.3 1015.3 0.0
24/02:00am 13.4 13.0 8.3 71 2.5 CALM 0 0 0 0 1015.3 1015.3 0.0
24/01:30am 14.5 13.2 9.3 71 2.7 NW 6 6 3 3 1015.6 1015.6 0.0
24/01:00am 14.4 13.5 9.2 71 2.7 NNW 4 6 2 3 1015.7 1015.7 0.0
24/12:30am 15.1 13.9 9.7 70 2.8 N 6 6 3 3 1015.8 1015.8 0.0
24/12:00am 16.2 15.2 10.3 68 3.1 N 6 6 3 3 1015.9 1015.9 0.0
 
Date/Time
WST
Temp
°C
App
Temp
°C
Dew
Point
°C
Rel
Hum
%
Delta-T
°C
Wind Press
QNH
hPa
Press
MSL
hPa
Rain since
9am
mm
Dir  Spd
km/h
Gust
km/h
Spd
kts
Gust
kts
23/11:30pm 16.5 16.7 10.6 68 3.1 CALM 0 0 0 0 1015.9 1015.9 0.0
23/11:00pm 17.6 18.1 11.6 68 3.3 CALM 0 0 0 0 1015.9 1015.9 0.0
23/10:30pm 17.9 18.7 12.4 70 3.1 CALM 0 0 0 0 1015.9 1015.9 0.0
23/10:00pm 19.5 20.3 12.5 64 3.9 CALM 0 0 0 0 1016.1 1016.1 0.0
23/09:30pm 19.6 19.6 14.2 71 3.1 W 7 9 4 5 1016.2 1016.2 0.0
23/09:00pm 20.6 21.0 15.4 72 3.1 NW 7 9 4 5 1016.2 1016.2 0.0
23/08:30pm 20.6 20.0 14.7 69 3.5 NW 11 11 6 6 1016.1 1016.1 0.0
23/08:00pm 21.4 21.3 15.9 71 3.3 NNW 11 13 6 7 1015.8 1015.8 0.0
23/07:30pm 22.1 21.0 16.4 70 3.5 WNW 17 20 9 11 1015.6 1015.6 0.0
23/07:00pm 21.4 18.4 6.1 37 7.7 NNW 11 19 6 10 1015.1 1015.1 0.0
23/06:30pm 22.5 19.2 4.5 31 8.8 NNW 11 13 6 7 1014.8 1014.8 0.0
23/06:00pm 23.7 19.8 3.6 27 9.8 NNW 13 15 7 8 1014.6 1014.6 0.0
23/05:30pm 26.1 22.1 5.1 26 10.7 NNW 15 19 8 10 1014.4 1014.4 0.0
23/05:00pm 28.0 23.5 4.3 22 12.0 NW 17 22 9 12 1014.3 1014.3 0.0
23/04:30pm 28.9 23.9 4.4 21 12.5 NNW 20 24 11 13 1014.2 1014.2 0.0
23/04:00pm 29.1 24.5 8.2 27 11.4 NW 22 26 12 14 1013.9 1013.9 0.0
23/03:30pm 30.5 25.7 5.7 21 13.1 NW 20 24 11 13 1013.9 1013.9 0.0
23/03:00pm 31.2 25.6 1.5 15 14.7 NW 20 26 11 14 1013.8 1013.8 0.0
23/02:30pm 31.9 26.4 2.1 15 14.9 NW 20 24 11 13 1013.9 1013.9 0.0
23/02:00pm 31.6 26.4 3.6 17 14.4 NW 20 24 11 13 1014.2 1014.2 0.0
23/01:30pm 31.6 26.3 1.8 15 14.8 WNW 19 26 10 14 1014.6 1014.6 0.0
23/01:00pm 30.9 25.5 1.3 15 14.5 NW 19 26 10 14 1014.9 1014.9 0.0
23/12:30pm 30.9 25.6 3.0 17 14.1 NW 20 26 11 14 1015.3 1015.3 0.0
23/12:00pm 30.3 25.9 2.5 17 13.9 NW 15 20 8 11 1015.7 1015.7 0.0
23/11:30am 29.5 25.1 4.9 21 12.7 WNW 17 22 9 12 1016.3 1016.3 0.0
23/11:00am 29.2 24.9 0.8 16 13.6 NW 13 17 7 9 1016.9 1016.9 0.0
23/10:30am 28.7 24.9 -0.5 15 13.7 WNW 9 15 5 8 1017.3 1017.3 0.0
23/10:00am 28.0 24.6 -2.0 14 13.6 E 6 11 3 6 1017.8 1017.8 0.0
23/09:30am 26.5 23.4 0.3 18 12.3 E 6 9 3 5 1018.4 1018.4 0.0
23/09:00am 25.3 22.8 1.4 21 11.3 ENE 4 9 2 5 1018.5 1018.5 0.0

Other formats

Comma delimited format used in spreadsheet applications
http://www.bom.gov.au/fwo/IDW60801/IDW60801.95205.axf

JavaScript Object Notation format (JSON) in row-major order
http://www.bom.gov.au/fwo/IDW60801/IDW60801.95205.json

Data quality

Most of these data are generated automatically and are frequently updated. Quality checks on data are not normally performed. It is possible for incorrect values to appear. Refer to information at About Latest Weather Observations and please check the disclaimer before using these data.